sensor_id;sensor_type;location;lat;lon;timestamp;temperature;humidity
54409;DHT22;40315;48.620;9.828;2023-11-19T00:00:53;6.90;99.90
54409;DHT22;40315;48.620;9.828;2023-11-19T00:03:20;6.90;99.90
54409;DHT22;40315;48.620;9.828;2023-11-19T00:05:47;6.90;99.90
54409;DHT22;40315;48.620;9.828;2023-11-19T00:08:16;7.80;99.90
54409;DHT22;40315;48.620;9.828;2023-11-19T00:23:13;6.80;99.90
54409;DHT22;40315;48.620;9.828;2023-11-19T00:35:36;6.90;99.90
54409;DHT22;40315;48.620;9.828;2023-11-19T01:05:21;7.00;99.90
54409;DHT22;40315;48.620;9.828;2023-11-19T01:10:19;7.00;99.90
54409;DHT22;40315;48.620;9.828;2023-11-19T01:12:46;6.90;99.90
54409;DHT22;40315;48.620;9.828;2023-11-19T01:15:13;6.90;99.90
54409;DHT22;40315;48.620;9.828;2023-11-19T01:17:40;7.00;99.90
54409;DHT22;40315;48.620;9.828;2023-11-19T01:20:11;6.90;99.90
54409;DHT22;40315;48.620;9.828;2023-11-19T01:22:39;7.00;99.90
54409;DHT22;40315;48.620;9.828;2023-11-19T01:25:09;7.00;99.90
54409;DHT22;40315;48.620;9.828;2023-11-19T01:27:36;7.00;99.90
54409;DHT22;40315;48.620;9.828;2023-11-19T01:30:04;7.00;99.90
54409;DHT22;40315;48.620;9.828;2023-11-19T01:32:35;7.00;99.90
54409;DHT22;40315;48.620;9.828;2023-11-19T01:35:02;7.90;99.90
54409;DHT22;40315;48.620;9.828;2023-11-19T01:42:36;7.10;99.90
54409;DHT22;40315;48.620;9.828;2023-11-19T01:47:35;7.10;99.90
54409;DHT22;40315;48.620;9.828;2023-11-19T01:50:07;7.10;99.90
54409;DHT22;40315;48.620;9.828;2023-11-19T02:08:46;7.40;99.90
54409;DHT22;40315;48.620;9.828;2023-11-19T02:16:12;7.40;99.90
54409;DHT22;40315;48.620;9.828;2023-11-19T02:26:14;7.50;99.90
54409;DHT22;40315;48.620;9.828;2023-11-19T02:43:37;7.60;99.90
54409;DHT22;40315;48.620;9.828;2023-11-19T02:48:34;7.70;99.90
54409;DHT22;40315;48.620;9.828;2023-11-19T03:08:36;9.70;99.90
54409;DHT22;40315;48.620;9.828;2023-11-19T03:40:48;8.00;99.90
54409;DHT22;40315;48.620;9.828;2023-11-19T03:58:15;8.20;99.90
54409;DHT22;40315;48.620;9.828;2023-11-19T04:03:09;8.20;99.90
54409;DHT22;40315;48.620;9.828;2023-11-19T04:15:28;8.50;99.90
54409;DHT22;40315;48.620;9.828;2023-11-19T04:17:58;8.50;99.90
54409;DHT22;40315;48.620;9.828;2023-11-19T04:22:55;8.60;99.90
54409;DHT22;40315;48.620;9.828;2023-11-19T04:32:49;8.80;99.90
54409;DHT22;40315;48.620;9.828;2023-11-19T04:37:45;8.80;99.90
54409;DHT22;40315;48.620;9.828;2023-11-19T04:55:06;8.80;99.90
54409;DHT22;40315;48.620;9.828;2023-11-19T04:57:36;9.00;99.90
54409;DHT22;40315;48.620;9.828;2023-11-19T05:02:33;8.90;99.90
54409;DHT22;40315;48.620;9.828;2023-11-19T05:09:57;8.90;99.90
54409;DHT22;40315;48.620;9.828;2023-11-19T05:27:14;9.30;99.90
54409;DHT22;40315;48.620;9.828;2023-11-19T05:44:28;9.80;99.90
54409;DHT22;40315;48.620;9.828;2023-11-19T05:51:52;10.10;99.90
54409;DHT22;40315;48.620;9.828;2023-11-19T06:11:45;10.60;99.90
54409;DHT22;40315;48.620;9.828;2023-11-19T06:21:38;10.80;99.90
54409;DHT22;40315;48.620;9.828;2023-11-19T06:26:36;10.70;99.90
54409;DHT22;40315;48.620;9.828;2023-11-19T06:29:02;10.80;99.90
54409;DHT22;40315;48.620;9.828;2023-11-19T06:58:36;11.10;99.90
54409;DHT22;40315;48.620;9.828;2023-11-19T07:08:27;11.00;99.90
54409;DHT22;40315;48.620;9.828;2023-11-19T07:15:52;11.00;99.90
54409;DHT22;40315;48.620;9.828;2023-11-19T07:28:13;11.10;99.90
54409;DHT22;40315;48.620;9.828;2023-11-19T07:30:40;11.10;99.90
54409;DHT22;40315;48.620;9.828;2023-11-19T07:43:04;11.20;99.90
54409;DHT22;40315;48.620;9.828;2023-11-19T07:52:57;11.30;99.90
54409;DHT22;40315;48.620;9.828;2023-11-19T08:37:20;11.50;99.90
54409;DHT22;40315;48.620;9.828;2023-11-19T08:42:15;11.60;99.90
54409;DHT22;40315;48.620;9.828;2023-11-19T08:52:12;11.80;99.90
54409;DHT22;40315;48.620;9.828;2023-11-19T08:59:37;12.00;99.90
54409;DHT22;40315;48.620;9.828;2023-11-19T09:02:04;12.00;99.90
54409;DHT22;40315;48.620;9.828;2023-11-19T09:09:31;12.10;99.90
54409;DHT22;40315;48.620;9.828;2023-11-19T09:12:04;12.10;99.90
54409;DHT22;40315;48.620;9.828;2023-11-19T09:14:31;12.10;99.90
54409;DHT22;40315;48.620;9.828;2023-11-19T09:16:59;12.20;99.90
54409;DHT22;40315;48.620;9.828;2023-11-19T09:19:26;12.30;99.90
54409;DHT22;40315;48.620;9.828;2023-11-19T09:21:53;12.30;99.90
54409;DHT22;40315;48.620;9.828;2023-11-19T09:24:23;12.40;99.90
54409;DHT22;40315;48.620;9.828;2023-11-19T09:26:51;12.50;99.90
54409;DHT22;40315;48.620;9.828;2023-11-19T09:29:18;12.70;99.90
54409;DHT22;40315;48.620;9.828;2023-11-19T09:31:45;12.70;99.90
54409;DHT22;40315;48.620;9.828;2023-11-19T09:34:12;13.00;99.90
54409;DHT22;40315;48.620;9.828;2023-11-19T09:36:41;13.00;99.90
54409;DHT22;40315;48.620;9.828;2023-11-19T09:39:09;13.10;99.90
54409;DHT22;40315;48.620;9.828;2023-11-19T09:41:38;13.10;99.90
54409;DHT22;40315;48.620;9.828;2023-11-19T09:44:08;13.00;99.90
54409;DHT22;40315;48.620;9.828;2023-11-19T09:46:36;13.20;99.90
54409;DHT22;40315;48.620;9.828;2023-11-19T09:49:06;13.30;99.90
54409;DHT22;40315;48.620;9.828;2023-11-19T09:51:35;13.30;99.90
54409;DHT22;40315;48.620;9.828;2023-11-19T09:54:02;13.30;99.90
54409;DHT22;40315;48.620;9.828;2023-11-19T09:56:29;13.30;99.90
54409;DHT22;40315;48.620;9.828;2023-11-19T09:58:59;13.30;99.90
54409;DHT22;40315;48.620;9.828;2023-11-19T10:01:26;13.20;99.90
54409;DHT22;40315;48.620;9.828;2023-11-19T10:03:55;13.30;99.90
54409;DHT22;40315;48.620;9.828;2023-11-19T10:06:23;13.30;99.90
54409;DHT22;40315;48.620;9.828;2023-11-19T10:08:52;13.40;99.90
54409;DHT22;40315;48.620;9.828;2023-11-19T10:11:21;13.40;99.90
54409;DHT22;40315;48.620;9.828;2023-11-19T10:13:48;13.30;99.90
54409;DHT22;40315;48.620;9.828;2023-11-19T10:16:18;13.30;99.90
54409;DHT22;40315;48.620;9.828;2023-11-19T10:18:45;13.30;99.90
54409;DHT22;40315;48.620;9.828;2023-11-19T10:21:13;13.40;99.90
54409;DHT22;40315;48.620;9.828;2023-11-19T10:23:50;13.50;99.90
54409;DHT22;40315;48.620;9.828;2023-11-19T10:26:18;13.40;99.90
54409;DHT22;40315;48.620;9.828;2023-11-19T10:28:46;13.50;99.90
54409;DHT22;40315;48.620;9.828;2023-11-19T10:31:13;13.50;99.90
54409;DHT22;40315;48.620;9.828;2023-11-19T10:33:42;13.50;99.90
54409;DHT22;40315;48.620;9.828;2023-11-19T10:36:11;13.60;99.90
54409;DHT22;40315;48.620;9.828;2023-11-19T10:38:39;13.60;99.90
54409;DHT22;40315;48.620;9.828;2023-11-19T10:41:06;13.60;99.90
54409;DHT22;40315;48.620;9.828;2023-11-19T10:43:43;13.60;99.90
54409;DHT22;40315;48.620;9.828;2023-11-19T10:46:12;13.60;99.90
54409;DHT22;40315;48.620;9.828;2023-11-19T10:48:44;13.70;99.90
54409;DHT22;40315;48.620;9.828;2023-11-19T10:51:12;13.90;99.90
54409;DHT22;40315;48.620;9.828;2023-11-19T10:53:43;13.90;99.90
54409;DHT22;40315;48.620;9.828;2023-11-19T10:56:17;14.00;99.90
54409;DHT22;40315;48.620;9.828;2023-11-19T10:58:48;14.10;99.90
54409;DHT22;40315;48.620;9.828;2023-11-19T11:01:19;14.10;99.90
54409;DHT22;40315;48.620;9.828;2023-11-19T11:03:51;14.10;99.90
54409;DHT22;40315;48.620;9.828;2023-11-19T11:06:19;14.10;99.90
54409;DHT22;40315;48.620;9.828;2023-11-19T11:08:48;14.10;99.90
54409;DHT22;40315;48.620;9.828;2023-11-19T11:11:16;14.10;99.90
54409;DHT22;40315;48.620;9.828;2023-11-19T11:13:47;14.10;99.90
54409;DHT22;40315;48.620;9.828;2023-11-19T11:16:18;14.10;99.90
54409;DHT22;40315;48.620;9.828;2023-11-19T11:18:49;14.20;99.90
54409;DHT22;40315;48.620;9.828;2023-11-19T11:21:20;14.20;99.90
54409;DHT22;40315;48.620;9.828;2023-11-19T11:24:25;14.30;99.90
54409;DHT22;40315;48.620;9.828;2023-11-19T11:27:14;14.20;99.90
54409;DHT22;40315;48.620;9.828;2023-11-19T11:29:56;14.20;99.90
54409;DHT22;40315;48.620;9.828;2023-11-19T11:32:30;14.30;99.90
54409;DHT22;40315;48.620;9.828;2023-11-19T11:35:30;14.30;99.90
54409;DHT22;40315;48.620;9.828;2023-11-19T11:38:01;14.30;99.90
54409;DHT22;40315;48.620;9.828;2023-11-19T11:40:29;14.20;99.90
54409;DHT22;40315;48.620;9.828;2023-11-19T11:42:59;14.20;99.90
54409;DHT22;40315;48.620;9.828;2023-11-19T11:45:37;14.10;99.90
54409;DHT22;40315;48.620;9.828;2023-11-19T11:48:15;14.10;99.90
54409;DHT22;40315;48.620;9.828;2023-11-19T11:51:05;14.10;99.90
54409;DHT22;40315;48.620;9.828;2023-11-19T11:53:35;14.10;99.90
54409;DHT22;40315;48.620;9.828;2023-11-19T11:56:05;14.10;99.90
54409;DHT22;40315;48.620;9.828;2023-11-19T11:58:35;14.10;99.90
54409;DHT22;40315;48.620;9.828;2023-11-19T12:01:05;14.10;99.90
54409;DHT22;40315;48.620;9.828;2023-11-19T12:03:36;14.10;99.90
54409;DHT22;40315;48.620;9.828;2023-11-19T12:06:05;14.10;99.90
54409;DHT22;40315;48.620;9.828;2023-11-19T12:08:35;14.20;99.90
54409;DHT22;40315;48.620;9.828;2023-11-19T12:11:02;14.20;99.90
54409;DHT22;40315;48.620;9.828;2023-11-19T12:13:46;14.20;99.90
54409;DHT22;40315;48.620;9.828;2023-11-19T12:16:15;14.20;99.90
54409;DHT22;40315;48.620;9.828;2023-11-19T12:18:42;14.20;99.90
54409;DHT22;40315;48.620;9.828;2023-11-19T12:21:10;14.10;99.90
54409;DHT22;40315;48.620;9.828;2023-11-19T12:23:45;14.20;99.90
54409;DHT22;40315;48.620;9.828;2023-11-19T12:26:34;14.30;99.90
54409;DHT22;40315;48.620;9.828;2023-11-19T12:29:01;14.30;99.90
54409;DHT22;40315;48.620;9.828;2023-11-19T12:31:32;14.10;99.90
54409;DHT22;40315;48.620;9.828;2023-11-19T12:34:06;14.20;99.90
54409;DHT22;40315;48.620;9.828;2023-11-19T12:36:38;14.20;99.90
54409;DHT22;40315;48.620;9.828;2023-11-19T12:39:06;14.10;99.90
54409;DHT22;40315;48.620;9.828;2023-11-19T12:41:49;14.10;99.90
54409;DHT22;40315;48.620;9.828;2023-11-19T12:44:18;14.10;99.90
54409;DHT22;40315;48.620;9.828;2023-11-19T12:46:45;14.20;99.90
54409;DHT22;40315;48.620;9.828;2023-11-19T12:49:18;14.20;99.90
54409;DHT22;40315;48.620;9.828;2023-11-19T12:51:46;14.20;99.90
54409;DHT22;40315;48.620;9.828;2023-11-19T12:56:51;14.40;99.90
54409;DHT22;40315;48.620;9.828;2023-11-19T12:59:21;14.40;99.90
54409;DHT22;40315;48.620;9.828;2023-11-19T13:01:54;14.20;99.90
54409;DHT22;40315;48.620;9.828;2023-11-19T13:04:22;14.30;99.90
54409;DHT22;40315;48.620;9.828;2023-11-19T13:06:51;14.40;99.90
54409;DHT22;40315;48.620;9.828;2023-11-19T13:09:25;14.40;99.90
54409;DHT22;40315;48.620;9.828;2023-11-19T13:11:53;14.40;99.90
54409;DHT22;40315;48.620;9.828;2023-11-19T13:14:20;14.30;99.90
54409;DHT22;40315;48.620;9.828;2023-11-19T13:16:47;14.30;99.90
54409;DHT22;40315;48.620;9.828;2023-11-19T13:19:16;14.20;99.90
54409;DHT22;40315;48.620;9.828;2023-11-19T13:21:45;14.10;99.90
54409;DHT22;40315;48.620;9.828;2023-11-19T13:24:17;14.10;99.90
54409;DHT22;40315;48.620;9.828;2023-11-19T13:26:44;14.20;99.90
54409;DHT22;40315;48.620;9.828;2023-11-19T13:29:11;14.30;99.90
54409;DHT22;40315;48.620;9.828;2023-11-19T13:31:41;14.20;99.90
54409;DHT22;40315;48.620;9.828;2023-11-19T13:36:37;14.20;99.90
54409;DHT22;40315;48.620;9.828;2023-11-19T13:48:56;14.00;99.90
54409;DHT22;40315;48.620;9.828;2023-11-19T13:53:51;14.00;99.90
54409;DHT22;40315;48.620;9.828;2023-11-19T13:58:47;14.00;99.90
54409;DHT22;40315;48.620;9.828;2023-11-19T14:11:05;13.80;99.90
54409;DHT22;40315;48.620;9.828;2023-11-19T14:18:34;13.90;99.90
54409;DHT22;40315;48.620;9.828;2023-11-19T14:25:57;13.90;99.90
54409;DHT22;40315;48.620;9.828;2023-11-19T14:28:24;13.90;99.90
54409;DHT22;40315;48.620;9.828;2023-11-19T14:30:52;14.00;99.90
54409;DHT22;40315;48.620;9.828;2023-11-19T14:33:24;14.10;99.90
54409;DHT22;40315;48.620;9.828;2023-11-19T14:35:51;14.10;99.90
54409;DHT22;40315;48.620;9.828;2023-11-19T14:38:18;14.10;99.90
54409;DHT22;40315;48.620;9.828;2023-11-19T14:40:46;14.10;99.90
54409;DHT22;40315;48.620;9.828;2023-11-19T14:43:13;14.00;99.90
54409;DHT22;40315;48.620;9.828;2023-11-19T14:45:42;13.80;99.90
54409;DHT22;40315;48.620;9.828;2023-11-19T14:53:05;13.70;99.90
54409;DHT22;40315;48.620;9.828;2023-11-19T14:55:33;13.70;99.90
54409;DHT22;40315;48.620;9.828;2023-11-19T15:00:27;13.40;99.90
54409;DHT22;40315;48.620;9.828;2023-11-19T15:02:54;13.40;99.90
54409;DHT22;40315;48.620;9.828;2023-11-19T15:07:50;13.20;99.90
54409;DHT22;40315;48.620;9.828;2023-11-19T15:10:19;13.20;99.90
54409;DHT22;40315;48.620;9.828;2023-11-19T15:12:48;13.10;99.90
54409;DHT22;40315;48.620;9.828;2023-11-19T15:15:15;13.10;99.90
54409;DHT22;40315;48.620;9.828;2023-11-19T15:22:43;13.00;99.90
54409;DHT22;40315;48.620;9.828;2023-11-19T15:30:07;12.90;99.90
54409;DHT22;40315;48.620;9.828;2023-11-19T15:54:58;12.40;99.90
54409;DHT22;40315;48.620;9.828;2023-11-19T15:57:25;12.30;99.90
54409;DHT22;40315;48.620;9.828;2023-11-19T16:04:48;12.10;99.90
54409;DHT22;40315;48.620;9.828;2023-11-19T16:07:18;12.40;99.90
54409;DHT22;40315;48.620;9.828;2023-11-19T16:09:45;12.00;99.90
54409;DHT22;40315;48.620;9.828;2023-11-19T16:12:12;12.10;99.90
54409;DHT22;40315;48.620;9.828;2023-11-19T16:14:42;12.10;99.90
54409;DHT22;40315;48.620;9.828;2023-11-19T16:17:10;11.90;99.90
54409;DHT22;40315;48.620;9.828;2023-11-19T16:19:38;11.90;99.90
54409;DHT22;40315;48.620;9.828;2023-11-19T16:22:06;11.90;99.90
54409;DHT22;40315;48.620;9.828;2023-11-19T16:24:36;11.70;99.90
54409;DHT22;40315;48.620;9.828;2023-11-19T16:27:04;12.00;99.90
54409;DHT22;40315;48.620;9.828;2023-11-19T16:29:34;11.90;99.90
54409;DHT22;40315;48.620;9.828;2023-11-19T16:32:01;11.90;99.90
54409;DHT22;40315;48.620;9.828;2023-11-19T16:37:01;11.80;99.90
54409;DHT22;40315;48.620;9.828;2023-11-19T16:39:29;11.70;99.90
54409;DHT22;40315;48.620;9.828;2023-11-19T16:42:00;11.80;99.90
54409;DHT22;40315;48.620;9.828;2023-11-19T16:46:55;11.90;99.90
54409;DHT22;40315;48.620;9.828;2023-11-19T16:49:22;11.90;99.90
54409;DHT22;40315;48.620;9.828;2023-11-19T16:51:53;11.70;99.90
54409;DHT22;40315;48.620;9.828;2023-11-19T16:56:47;11.70;99.90
54409;DHT22;40315;48.620;9.828;2023-11-19T16:59:14;11.80;99.90
54409;DHT22;40315;48.620;9.828;2023-11-19T17:01:41;11.80;99.90
54409;DHT22;40315;48.620;9.828;2023-11-19T17:11:38;11.80;99.90
54409;DHT22;40315;48.620;9.828;2023-11-19T17:19:03;11.80;99.90
54409;DHT22;40315;48.620;9.828;2023-11-19T17:21:32;11.90;99.90
54409;DHT22;40315;48.620;9.828;2023-11-19T17:23:59;11.90;99.90
54409;DHT22;40315;48.620;9.828;2023-11-19T17:33:52;11.80;99.90
54409;DHT22;40315;48.620;9.828;2023-11-19T17:36:21;11.80;99.90
54409;DHT22;40315;48.620;9.828;2023-11-19T17:38:49;11.70;99.90
54409;DHT22;40315;48.620;9.828;2023-11-19T17:41:16;11.80;99.90
54409;DHT22;40315;48.620;9.828;2023-11-19T18:20:46;11.40;99.90
54409;DHT22;40315;48.620;9.828;2023-11-19T18:38:04;11.20;99.90
54409;DHT22;40315;48.620;9.828;2023-11-19T18:40:32;11.20;99.90
54409;DHT22;40315;48.620;9.828;2023-11-19T19:15:09;11.20;99.90
54409;DHT22;40315;48.620;9.828;2023-11-19T19:27:37;11.40;99.90
54409;DHT22;40315;48.620;9.828;2023-11-19T19:30:06;11.30;99.90
54409;DHT22;40315;48.620;9.828;2023-11-19T19:35:04;11.40;99.90
54409;DHT22;40315;48.620;9.828;2023-11-19T19:47:25;11.60;99.90
54409;DHT22;40315;48.620;9.828;2023-11-19T19:57:15;11.50;99.90
54409;DHT22;40315;48.620;9.828;2023-11-19T19:59:42;11.80;99.90
54409;DHT22;40315;48.620;9.828;2023-11-19T20:04:38;11.60;99.90
54409;DHT22;40315;48.620;9.828;2023-11-19T20:07:05;11.60;99.90
54409;DHT22;40315;48.620;9.828;2023-11-19T20:09:32;11.60;99.90
54409;DHT22;40315;48.620;9.828;2023-11-19T20:12:00;11.60;99.90
54409;DHT22;40315;48.620;9.828;2023-11-19T20:14:27;11.60;99.90
54409;DHT22;40315;48.620;9.828;2023-11-19T20:16:54;11.20;99.90
54409;DHT22;40315;48.620;9.828;2023-11-19T20:21:52;12.00;99.90
54409;DHT22;40315;48.620;9.828;2023-11-19T20:31:46;11.70;99.90
54409;DHT22;40315;48.620;9.828;2023-11-19T22:36:31;9.80;99.90
54409;DHT22;40315;48.620;9.828;2023-11-19T23:23:25;9.40;99.90
